createdAt,value
2022-08-22T00:00:15.227Z,14.47
2022-08-22T00:03:11.734Z,20.26
2022-08-22T00:03:26.059Z,14.49
2022-08-22T00:06:20.508Z,16.09
2022-08-22T00:08:59.268Z,17.27
2022-08-22T00:11:53.225Z,17.07
2022-08-22T00:14:43.001Z,15.83
2022-08-22T00:17:45.312Z,14.83
2022-08-22T00:20:43.604Z,14.04
2022-08-22T00:23:58.288Z,14.10
2022-08-22T00:27:07.295Z,16.01
2022-08-22T00:30:09.097Z,17.25
2022-08-22T00:32:48.852Z,16.75
2022-08-22T00:35:31.860Z,15.53
2022-08-22T00:38:13.485Z,14.52
2022-08-22T00:41:03.927Z,14.23
2022-08-22T00:44:03.381Z,15.59
2022-08-22T00:47:03.493Z,16.76
2022-08-22T00:49:41.995Z,16.85
2022-08-22T00:53:15.606Z,15.74
2022-08-22T00:56:30.849Z,14.39
2022-08-22T00:59:29.322Z,13.55
2022-08-22T01:02:47.127Z,13.64
2022-08-22T01:05:55.231Z,15.71
2022-08-22T01:09:16.096Z,16.87
2022-08-22T01:12:02.669Z,16.57
2022-08-22T01:14:45.696Z,15.32
2022-08-22T01:17:41.374Z,14.33
2022-08-22T01:20:59.458Z,13.51
2022-08-22T01:23:56.574Z,13.66
2022-08-22T01:26:49.591Z,15.57
2022-08-22T01:29:51.133Z,16.62
2022-08-22T01:32:48.229Z,16.39
2022-08-22T01:35:32.851Z,14.69
2022-08-22T01:38:29.459Z,13.66
2022-08-22T01:41:17.615Z,14.66
2022-08-22T01:44:23.250Z,16.07
2022-08-22T01:47:11.462Z,16.33
2022-08-22T01:50:05.020Z,14.94
2022-08-22T01:53:14.588Z,13.73
2022-08-22T01:56:09.861Z,14.47
2022-08-22T01:59:17.603Z,15.91
2022-08-22T02:02:11.693Z,16.28
2022-08-22T02:04:55.478Z,15.13
2022-08-22T02:08:02.341Z,14.14
2022-08-22T02:11:01.906Z,13.30
2022-08-22T02:14:03.441Z,13.39
2022-08-22T02:16:31.230Z,15.36
2022-08-22T02:19:14.246Z,16.49
2022-08-22T02:22:21.556Z,16.69
2022-08-22T02:25:19.685Z,15.31
2022-08-22T02:28:01.065Z,14.16
2022-08-22T02:30:55.041Z,13.40
2022-08-22T02:34:00.305Z,12.74
2022-08-22T02:36:48.472Z,12.89
2022-08-22T02:39:42.482Z,14.52
2022-08-22T02:42:26.970Z,15.76
2022-08-22T02:45:23.041Z,16.46
2022-08-22T02:48:18.717Z,15.79
2022-08-22T02:51:36.170Z,14.52
2022-08-22T02:54:26.638Z,13.52
2022-08-22T02:57:39.560Z,13.47
2022-08-22T03:00:32.490Z,15.07
2022-08-22T03:03:29.126Z,16.21
2022-08-22T03:06:05.544Z,16.31
2022-08-22T03:09:00.126Z,15.11
2022-08-22T03:11:35.679Z,13.94
2022-08-22T03:14:26.410Z,13.10
2022-08-22T03:17:47.932Z,12.34
2022-08-22T03:20:35.931Z,12.65
2022-08-22T03:23:28.324Z,14.38
2022-08-22T03:26:23.392Z,15.52
2022-08-22T03:29:10.087Z,16.30
2022-08-22T03:32:06.408Z,16.40
2022-08-22T03:34:36.296Z,15.02
2022-08-22T03:37:25.883Z,13.97
2022-08-22T03:40:34.428Z,13.05
2022-08-22T03:43:54.817Z,13.29
2022-08-22T03:46:54.334Z,15.41
2022-08-22T03:49:31.130Z,15.82
2022-08-22T03:53:15.547Z,14.65
2022-08-22T03:56:28.085Z,13.09
2022-08-22T03:59:40.711Z,13.15
2022-08-22T04:02:42.953Z,15.22
2022-08-22T04:05:17.367Z,15.80
2022-08-22T04:08:07.861Z,14.68
2022-08-22T04:11:18.864Z,13.53
2022-08-22T04:14:14.275Z,12.63
2022-08-22T04:17:01.152Z,12.02
2022-08-22T04:20:09.497Z,12.40
2022-08-22T04:23:18.681Z,14.78
2022-08-22T04:26:12.078Z,15.99
2022-08-22T04:28:58.962Z,15.44
2022-08-22T04:31:41.517Z,14.10
2022-08-22T04:34:37.697Z,13.13
2022-08-22T04:37:41.642Z,12.37
2022-08-22T04:40:36.957Z,12.65
2022-08-22T04:43:27.077Z,14.67
2022-08-22T04:46:08.169Z,16.00
2022-08-22T04:48:48.007Z,16.18
2022-08-22T04:51:36.213Z,14.97
2022-08-22T04:54:15.697Z,13.83
2022-08-22T04:57:20.798Z,12.94
2022-08-22T04:59:51.088Z,12.98
2022-08-22T05:02:27.620Z,14.60
2022-08-22T05:05:13.434Z,15.86
2022-08-22T05:08:01.395Z,16.24
2022-08-22T05:10:41.073Z,14.99
2022-08-22T05:13:32.773Z,13.89
2022-08-22T05:16:11.533Z,13.05
2022-08-22T05:18:51.441Z,13.18
2022-08-22T05:21:31.245Z,14.90
2022-08-22T05:24:11.679Z,16.04
2022-08-22T05:26:48.331Z,16.25
2022-08-22T05:29:27.509Z,15.12
2022-08-22T05:32:07.856Z,13.91
2022-08-22T05:34:41.005Z,13.06
2022-08-22T05:37:24.213Z,13.02
2022-08-22T05:39:59.331Z,14.77
2022-08-22T05:42:32.949Z,16.22
2022-08-22T05:45:05.418Z,16.74
2022-08-22T05:47:52.934Z,15.61
2022-08-22T05:50:58.547Z,14.32
2022-08-22T05:53:47.937Z,14.14
2022-08-22T05:56:37.634Z,15.89
2022-08-22T05:59:29.148Z,16.95
2022-08-22T06:02:22.273Z,16.26
2022-08-22T06:04:59.543Z,15.05
2022-08-22T06:07:45.462Z,14.14
2022-08-22T06:10:48.141Z,14.49
2022-08-22T06:13:32.590Z,16.38
2022-08-22T06:16:40.894Z,17.18
2022-08-22T06:19:20.264Z,15.87
2022-08-22T06:21:52.017Z,14.91
2022-08-22T06:24:27.478Z,14.27
2022-08-22T06:27:09.123Z,14.32
2022-08-22T06:29:43.377Z,16.16
2022-08-22T06:32:44.466Z,17.41
2022-08-22T06:35:24.666Z,17.87
2022-08-22T06:37:59.903Z,16.85
2022-08-22T06:40:29.546Z,15.92
2022-08-22T06:42:58.964Z,15.32
2022-08-22T06:45:32.191Z,14.86
2022-08-22T06:48:06.180Z,14.89
2022-08-22T06:50:45.330Z,16.35
2022-08-22T06:53:40.331Z,17.26
2022-08-22T06:56:29.682Z,16.16
2022-08-22T06:59:03.146Z,15.25
2022-08-22T07:01:45.367Z,14.73
2022-08-22T07:04:14.073Z,14.87
2022-08-22T07:06:50.371Z,16.49
2022-08-22T07:09:55.413Z,17.54
2022-08-22T07:12:35.342Z,16.69
2022-08-22T07:15:42.235Z,15.83
2022-08-22T07:18:20.785Z,15.24
2022-08-22T07:20:57.084Z,14.90
2022-08-22T07:23:34.678Z,15.12
2022-08-22T07:26:33.684Z,16.79
2022-08-22T07:29:25.849Z,17.88
2022-08-22T07:32:03.192Z,17.13
2022-08-22T07:34:53.746Z,16.43
2022-08-22T07:38:02.215Z,15.91
2022-08-22T07:40:43.561Z,15.52
2022-08-22T07:43:30.884Z,15.28
2022-08-22T07:46:38.744Z,15.11
2022-08-22T07:49:21.813Z,15.83
2022-08-22T07:52:01.108Z,17.97
2022-08-22T07:54:47.155Z,18.58
2022-08-22T07:57:30.309Z,17.89
2022-08-22T08:00:01.453Z,17.10
2022-08-22T08:02:30.081Z,16.64
2022-08-22T08:05:00.563Z,16.36
2022-08-22T08:07:30.385Z,16.17
2022-08-22T08:10:13.124Z,16.05
2022-08-22T08:13:01.755Z,15.96
2022-08-22T08:15:36.148Z,15.87
2022-08-22T08:18:12.383Z,15.81
2022-08-22T08:20:40.348Z,15.80
2022-08-22T08:23:12.024Z,15.79
2022-08-22T08:25:57.280Z,15.80
2022-08-22T08:28:34.822Z,15.85
2022-08-22T08:31:13.714Z,15.88
2022-08-22T08:33:46.437Z,16.00
2022-08-22T08:36:36.954Z,16.13
2022-08-22T08:39:28.549Z,16.25
2022-08-22T08:43:15.209Z,16.35
2022-08-22T08:46:38.767Z,16.46
2022-08-22T08:49:33.634Z,16.58
2022-08-22T08:52:24.784Z,16.67
2022-08-22T08:55:19.803Z,16.77
2022-08-22T08:58:27.341Z,16.86
2022-08-22T09:01:31.153Z,16.92
2022-08-22T09:04:23.568Z,16.98
2022-08-22T09:07:01.665Z,17.06
2022-08-22T09:10:05.087Z,17.15
2022-08-22T09:13:11.593Z,17.26
2022-08-22T09:16:25.818Z,17.35
2022-08-22T09:19:16.826Z,17.51
2022-08-22T09:22:27.837Z,17.66
2022-08-22T09:25:16.729Z,17.79
2022-08-22T09:28:18.308Z,17.91
2022-08-22T09:31:51.418Z,18.03
2022-08-22T09:34:44.064Z,18.14
2022-08-22T09:37:33.852Z,18.23
2022-08-22T09:40:29.266Z,18.32
2022-08-22T09:43:14.198Z,18.39
2022-08-22T09:46:20.394Z,18.51
2022-08-22T09:49:20.041Z,18.62
2022-08-22T09:52:15.582Z,18.75
2022-08-22T09:55:39.397Z,18.89
2022-08-22T09:58:27.842Z,18.94
2022-08-22T10:01:36.558Z,18.96
2022-08-22T10:04:07.123Z,19.05
2022-08-22T10:07:22.667Z,19.13
2022-08-22T10:10:26.196Z,19.27
2022-08-22T10:13:16.666Z,19.38
2022-08-22T10:15:55.034Z,19.47
2022-08-22T10:19:00.527Z,19.58
2022-08-22T10:22:15.192Z,19.67
2022-08-22T10:25:21.329Z,19.86
2022-08-22T10:28:31.310Z,20.04
2022-08-22T10:31:27.259Z,20.14
2022-08-22T10:34:13.309Z,20.15
2022-08-22T10:37:13.003Z,20.14
2022-08-22T10:40:11.096Z,20.11
2022-08-22T10:43:02.715Z,20.09
2022-08-22T10:45:37.452Z,20.09
2022-08-22T10:48:05.146Z,20.17
2022-08-22T10:50:49.859Z,20.35
2022-08-22T10:53:55.988Z,20.50
2022-08-22T10:56:32.267Z,20.67
2022-08-22T10:59:38.170Z,20.86
2022-08-22T11:02:18.992Z,21.06
2022-08-22T11:05:25.947Z,21.24
2022-08-22T11:08:19.177Z,21.27
2022-08-22T11:10:54.488Z,21.22
2022-08-22T11:14:03.300Z,21.26
2022-08-22T11:16:57.287Z,21.36
2022-08-22T11:20:01.625Z,21.51
2022-08-22T11:22:42.084Z,21.72
2022-08-22T11:26:05.151Z,21.80
2022-08-22T11:28:46.114Z,21.97
2022-08-22T11:31:40.080Z,22.00
2022-08-22T11:34:47.007Z,21.83
2022-08-22T11:37:23.932Z,21.85
2022-08-22T11:40:34.407Z,21.87
2022-08-22T11:43:40.386Z,21.98
2022-08-22T11:46:30.430Z,22.10
2022-08-22T11:49:39.673Z,22.10
2022-08-22T11:52:53.534Z,22.10
2022-08-22T11:55:58.486Z,22.18
2022-08-22T11:59:14.126Z,22.34
2022-08-22T12:02:13.651Z,22.51
2022-08-22T12:04:53.135Z,22.64
2022-08-22T12:07:43.049Z,22.72
2022-08-22T12:10:17.321Z,22.79
2022-08-22T12:13:12.714Z,22.83
2022-08-22T12:16:22.397Z,22.96
2022-08-22T12:19:24.266Z,23.10
2022-08-22T12:23:01.351Z,23.28
2022-08-22T12:26:16.677Z,23.47
2022-08-22T12:29:39.923Z,23.61
2022-08-22T12:32:43.819Z,23.65
2022-08-22T12:35:31.913Z,23.77
2022-08-22T12:38:46.109Z,23.85
2022-08-22T12:41:36.074Z,23.97
2022-08-22T12:44:40.129Z,24.09
2022-08-22T12:47:56.578Z,24.12
2022-08-22T12:50:32.906Z,23.93
2022-08-22T12:53:27.438Z,23.72
2022-08-22T12:56:17.338Z,23.42
2022-08-22T12:59:07.006Z,23.12
2022-08-22T13:01:44.806Z,22.83
2022-08-22T13:04:32.745Z,22.65
2022-08-22T13:07:08.535Z,22.58
2022-08-22T13:09:48.467Z,22.56
2022-08-22T13:12:31.044Z,22.45
2022-08-22T13:15:23.569Z,22.28
2022-08-22T13:17:53.013Z,22.17
2022-08-22T13:20:37.952Z,22.06
2022-08-22T13:23:27.850Z,22.01
2022-08-22T13:26:14.330Z,22.02
2022-08-22T13:29:25.842Z,21.99
2022-08-22T13:32:01.887Z,21.98
2022-08-22T13:34:55.294Z,21.97
2022-08-22T13:37:37.020Z,21.90
2022-08-22T13:40:29.947Z,21.86
2022-08-22T13:43:12.920Z,21.84
2022-08-22T13:45:54.650Z,21.83
2022-08-22T13:48:42.985Z,21.86
2022-08-22T13:51:37.263Z,21.89
2022-08-22T13:54:36.449Z,22.00
2022-08-22T13:57:43.498Z,22.15
2022-08-22T14:00:56.517Z,22.29
2022-08-22T14:03:38.786Z,22.29
2022-08-22T14:06:32.517Z,22.20
2022-08-22T14:09:31.494Z,22.07
2022-08-22T14:12:17.236Z,22.02
2022-08-22T14:14:54.478Z,22.02
2022-08-22T14:17:30.475Z,21.97
2022-08-22T14:20:12.963Z,21.89
2022-08-22T14:23:04.630Z,21.81
2022-08-22T14:25:40.539Z,21.78
2022-08-22T14:28:31.821Z,21.78
2022-08-22T14:31:13.558Z,21.78
2022-08-22T14:34:10.729Z,21.76
2022-08-22T14:36:59.053Z,21.75
2022-08-22T14:39:42.818Z,21.77
2022-08-22T14:42:27.051Z,21.79
2022-08-22T14:45:15.098Z,21.81
2022-08-22T14:48:14.131Z,21.80
2022-08-22T14:50:56.934Z,21.79
2022-08-22T14:53:40.309Z,21.79
2022-08-22T14:56:11.403Z,21.78
2022-08-22T14:59:02.379Z,21.74
2022-08-22T15:01:51.514Z,21.70
2022-08-22T15:04:39.827Z,21.69
2022-08-22T15:07:10.584Z,21.70
2022-08-22T15:09:56.226Z,21.71
2022-08-22T15:12:35.180Z,21.72
2022-08-22T15:15:12.893Z,21.69
2022-08-22T15:17:50.821Z,21.66
2022-08-22T15:20:38.169Z,21.61
2022-08-22T15:23:22.396Z,21.57
2022-08-22T15:26:03.841Z,21.55
2022-08-22T15:28:52.605Z,21.54
2022-08-22T15:31:22.833Z,21.53
2022-08-22T15:33:52.243Z,21.51
2022-08-22T15:36:26.094Z,21.50
2022-08-22T15:39:31.105Z,21.52
2022-08-22T15:42:00.772Z,21.58
2022-08-22T15:44:38.018Z,21.65
2022-08-22T15:47:41.655Z,21.77
2022-08-22T15:50:47.779Z,21.92
2022-08-22T15:53:33.656Z,22.06
2022-08-22T15:56:07.113Z,22.14
2022-08-22T15:58:40.381Z,22.13
2022-08-22T16:01:25.722Z,22.02
2022-08-22T16:04:06.726Z,21.84
2022-08-22T16:06:53.218Z,21.66
2022-08-22T16:09:49.012Z,21.54
2022-08-22T16:12:50.760Z,21.39
2022-08-22T16:15:54.342Z,21.28
2022-08-22T16:18:33.332Z,21.29
2022-08-22T16:21:05.120Z,21.34
2022-08-22T16:23:51.356Z,21.38
2022-08-22T16:26:41.871Z,21.43
2022-08-22T16:29:17.833Z,21.47
2022-08-22T16:31:48.867Z,21.50
2022-08-22T16:34:16.713Z,21.48
2022-08-22T16:37:03.272Z,21.44
2022-08-22T16:40:06.281Z,21.45
2022-08-22T16:42:41.929Z,21.59
2022-08-22T16:45:20.771Z,21.76
2022-08-22T16:47:58.267Z,21.90
2022-08-22T16:50:40.913Z,22.01
2022-08-22T16:53:45.840Z,22.18
2022-08-22T16:56:33.297Z,22.35
2022-08-22T16:59:26.990Z,22.43
2022-08-22T17:02:26.652Z,22.37
2022-08-22T17:05:10.548Z,22.18
2022-08-22T17:08:00.705Z,21.97
2022-08-22T17:11:19.246Z,21.81
2022-08-22T17:14:17.824Z,21.67
2022-08-22T17:16:58.657Z,21.66
2022-08-22T17:19:35.240Z,21.69
2022-08-22T17:22:38.867Z,21.65
2022-08-22T17:25:21.980Z,21.45
2022-08-22T17:28:22.482Z,21.23
2022-08-22T17:31:21.364Z,20.99
2022-08-22T17:34:09.168Z,20.78
2022-08-22T17:37:03.550Z,20.61
2022-08-22T17:40:00.414Z,20.42
2022-08-22T17:43:03.699Z,20.25
2022-08-22T17:45:59.565Z,20.08
2022-08-22T17:48:46.036Z,19.95
2022-08-22T17:51:43.650Z,19.86
2022-08-22T17:54:22.297Z,19.78
2022-08-22T17:57:07.955Z,19.72
2022-08-22T17:59:59.666Z,19.64
2022-08-22T18:03:07.467Z,19.57
2022-08-22T18:05:53.463Z,19.49
2022-08-22T18:12:07.741Z,19.35
2022-08-22T18:15:02.220Z,19.27
2022-08-22T18:17:44.391Z,19.19
2022-08-22T18:20:25.173Z,19.12
2022-08-22T18:23:21.702Z,19.06
2022-08-22T18:26:27.199Z,18.97
2022-08-22T18:29:19.137Z,18.91
2022-08-22T18:32:31.858Z,18.82
2022-08-22T18:35:16.150Z,18.73
2022-08-22T18:38:19.808Z,18.66
2022-08-22T18:41:24.182Z,18.59
2022-08-22T18:43:55.169Z,18.53
2022-08-22T18:46:38.391Z,18.47
2022-08-22T18:49:24.597Z,18.38
2022-08-22T18:52:18.310Z,18.29
2022-08-22T18:54:58.223Z,18.21
2022-08-22T18:58:11.028Z,18.12
2022-08-22T19:00:45.579Z,18.05
2022-08-22T19:03:43.382Z,17.98
2022-08-22T19:07:00.817Z,17.90
2022-08-22T19:09:43.732Z,17.83
2022-08-22T19:12:31.426Z,17.76
2022-08-22T19:15:08.394Z,17.66
2022-08-22T19:18:15.297Z,17.56
2022-08-22T19:21:01.489Z,17.44
2022-08-22T19:23:40.527Z,17.35
2022-08-22T19:26:41.610Z,17.27
2022-08-22T19:29:17.762Z,17.19
2022-08-22T19:31:54.645Z,17.12
2022-08-22T19:34:40.961Z,17.05
2022-08-22T19:37:30.811Z,16.97
2022-08-22T19:40:11.276Z,16.90
2022-08-22T19:42:44.209Z,16.85
2022-08-22T19:45:28.791Z,16.81
2022-08-22T19:48:13.234Z,16.77
2022-08-22T19:50:45.267Z,16.68
2022-08-22T19:53:40.557Z,16.62
2022-08-22T19:56:28.350Z,16.54
2022-08-22T19:59:24.127Z,16.44
2022-08-22T20:02:01.996Z,17.27
2022-08-22T20:05:29.795Z,19.25
2022-08-22T20:08:06.419Z,20.01
2022-08-22T20:11:16.924Z,19.13
2022-08-22T20:13:45.793Z,18.25
2022-08-22T20:16:23.949Z,17.77
2022-08-22T20:19:07.713Z,17.35
2022-08-22T20:21:42.354Z,17.01
2022-08-22T20:24:46.782Z,16.72
2022-08-22T20:27:23.870Z,16.42
2022-08-22T20:30:03.935Z,16.61
2022-08-22T20:32:47.527Z,18.45
2022-08-22T20:35:26.797Z,20.01
2022-08-22T20:38:06.971Z,20.37
2022-08-22T20:40:56.486Z,19.35
2022-08-22T20:43:37.634Z,18.32
2022-08-22T20:46:24.107Z,17.64
2022-08-22T20:48:56.644Z,17.14
2022-08-22T20:51:28.551Z,16.79
2022-08-22T20:54:10.052Z,16.48
2022-08-22T20:56:52.826Z,16.18
2022-08-22T20:59:40.232Z,15.91
2022-08-22T21:02:14.706Z,16.13
2022-08-22T21:05:00.439Z,17.87
2022-08-22T21:07:36.433Z,19.50
2022-08-22T21:10:45.358Z,19.79
2022-08-22T21:13:25.516Z,18.53
2022-08-22T21:16:00.347Z,17.64
2022-08-22T21:18:36.154Z,17.03
2022-08-22T21:21:30.926Z,16.55
2022-08-22T21:24:08.121Z,16.13
2022-08-22T21:27:01.996Z,15.79
2022-08-22T21:29:34.016Z,15.47
2022-08-22T21:32:14.669Z,15.65
2022-08-22T21:34:48.658Z,17.40
2022-08-22T21:37:44.221Z,18.82
2022-08-22T21:40:33.094Z,19.19
2022-08-22T21:43:08.393Z,18.14
2022-08-22T21:45:38.855Z,17.32
2022-08-22T21:48:56.742Z,16.69
2022-08-22T21:51:40.763Z,16.03
2022-08-22T21:54:40.333Z,15.56
2022-08-22T21:57:10.753Z,15.13
2022-08-22T21:59:52.189Z,15.24
2022-08-22T22:02:37.466Z,17.02
2022-08-22T22:05:16.340Z,18.43
2022-08-22T22:07:47.230Z,18.92
2022-08-22T22:10:20.134Z,18.00
2022-08-22T22:12:51.871Z,17.09
2022-08-22T22:15:26.078Z,16.44
2022-08-22T22:17:55.665Z,15.93
2022-08-22T22:20:26.239Z,15.53
2022-08-22T22:22:55.263Z,15.19
2022-08-22T22:25:38.792Z,14.88
2022-08-22T22:28:25.141Z,15.04
2022-08-22T22:30:53.468Z,16.77
2022-08-22T22:33:26.885Z,18.03
2022-08-22T22:35:58.992Z,18.48
2022-08-22T22:38:26.717Z,17.60
2022-08-22T22:40:54.492Z,16.69
2022-08-22T22:43:22.592Z,16.01
2022-08-22T22:45:50.786Z,15.49
2022-08-22T22:48:24.574Z,15.08
2022-08-22T22:50:54.193Z,14.74
2022-08-22T22:53:40.302Z,14.43
2022-08-22T22:56:16.990Z,14.68
2022-08-22T22:58:45.703Z,16.43
2022-08-22T23:01:23.884Z,17.78
2022-08-22T23:03:58.539Z,18.23
2022-08-22T23:06:31.834Z,17.25
2022-08-22T23:08:59.926Z,16.27
2022-08-22T23:11:30.488Z,15.55
2022-08-22T23:13:58.462Z,15.00
2022-08-22T23:16:28.855Z,14.56
2022-08-22T23:18:56.825Z,14.54
2022-08-22T23:21:29.077Z,16.12
2022-08-22T23:23:59.748Z,17.58
2022-08-22T23:26:29.505Z,18.10
2022-08-22T23:28:58.587Z,17.21
2022-08-22T23:31:31.733Z,16.19
2022-08-22T23:34:14.062Z,15.40
2022-08-22T23:36:46.257Z,14.74
2022-08-22T23:39:16.374Z,14.65
2022-08-22T23:41:46.864Z,16.14
2022-08-22T23:44:19.856Z,17.54
2022-08-22T23:46:48.714Z,18.00
2022-08-22T23:49:20.131Z,17.04
2022-08-22T23:51:49.526Z,16.01
2022-08-22T23:54:18.704Z,15.22
2022-08-22T23:56:54.609Z,14.60
2022-08-22T23:59:30.537Z,14.06
